Time;durP1;ratioP1;P1;durP2;ratioP2;P2;SDS_P1;SDS_P2;PMS_P1;PMS_P2;Temp;Humidity;BMP_temperature;BMP_pressure;BME280_temperature;BME280_humidity;BME280_pressure;Samples;Min_cycle;Max_cycle;Signal;HPM_P1;HPM_P2
2023/09/23 00:02:08;;;;;;;1.95;1.85;;;;;;;12.29;85.23;99465.56;10452152;28;20575;-77
2023/09/23 00:07:11;;;;;;;2.72;2.33;;;;;;;12.72;82.99;99451.13;10450588;28;20482;-77
2023/09/23 00:12:16;;;;;;;3.47;1.70;;;;;;;12.33;83.54;99475.00;10447004;28;20056;-77
2023/09/23 00:17:19;;;;;;;6.22;3.08;;;;;;;12.35;83.25;99438.81;10442459;28;20037;-77
2023/09/23 00:22:23;;;;;;;3.88;2.80;;;;;;;12.24;86.69;99465.16;10445988;28;20048;-77
2023/09/23 00:27:28;;;;;;;4.65;2.90;;;;;;;11.94;88.12;99465.41;10447081;28;20041;-77
2023/09/23 00:32:32;;;;;;;6.38;3.95;;;;;;;11.60;89.22;99461.72;10427992;28;20044;-76
2023/09/23 00:37:35;;;;;;;4.30;3.90;;;;;;;11.65;88.39;99468.34;10425221;28;20051;-77
2023/09/23 00:42:40;;;;;;;4.88;3.92;;;;;;;12.03;86.23;99474.41;10424152;28;20045;-76
2023/09/23 00:47:44;;;;;;;7.22;4.78;;;;;;;11.70;86.15;99484.03;10419539;28;20049;-76
2023/09/23 00:52:49;;;;;;;6.55;5.35;;;;;;;11.90;84.25;99507.09;10432930;28;20064;-76
2023/09/23 00:57:55;;;;;;;9.52;7.47;;;;;;;12.10;83.61;99491.63;10410708;28;20059;-76
2023/09/23 01:02:59;;;;;;;10.85;6.68;;;;;;;11.47;84.81;99497.94;10427761;28;20060;-77
2023/09/23 01:08:05;;;;;;;11.07;9.30;;;;;;;11.48;84.68;99506.84;10421964;28;20045;-77
2023/09/23 01:13:19;;;;;;;9.43;7.88;;;;;;;11.52;84.76;99510.94;10417893;28;20053;-77
2023/09/23 01:18:28;;;;;;;11.40;9.25;;;;;;;11.80;83.13;99518.94;10410291;28;20060;-77
2023/09/23 01:23:36;;;;;;;13.40;10.60;;;;;;;12.09;81.62;99506.06;10448328;28;20060;-77
2023/09/23 01:28:39;;;;;;;14.18;10.15;;;;;;;11.42;84.48;99513.66;10412083;28;20063;-77
2023/09/23 01:33:42;;;;;;;14.07;9.65;;;;;;;11.18;85.06;99514.22;10435340;28;20060;-76
2023/09/23 01:38:48;;;;;;;13.60;9.85;;;;;;;11.34;84.56;99526.19;10445290;28;20127;-77
2023/09/23 01:43:51;;;;;;;13.02;10.52;;;;;;;11.55;84.27;99528.59;10438822;28;20113;-76
2023/09/23 01:48:55;;;;;;;12.18;10.20;;;;;;;11.63;83.54;99536.75;10434489;28;20504;-77
2023/09/23 01:54:00;;;;;;;10.60;8.02;;;;;;;11.35;85.47;99536.75;10445557;28;20053;-76
2023/09/23 01:59:03;;;;;;;11.38;9.77;;;;;;;11.40;85.33;99541.69;10443553;28;20057;-76
2023/09/23 02:04:07;;;;;;;12.38;9.07;;;;;;;11.47;86.52;99554.41;10439624;28;20738;-77
2023/09/23 02:09:11;;;;;;;10.80;8.10;;;;;;;11.49;87.19;99568.56;10437193;28;20048;-75
2023/09/23 02:14:14;;;;;;;11.02;9.77;;;;;;;11.03;91.73;99572.13;10443372;28;21261;-76
2023/09/23 02:19:18;;;;;;;12.60;9.82;;;;;;;11.30;90.40;99579.41;10430551;28;20045;-76
2023/09/23 02:24:22;;;;;;;12.70;10.20;;;;;;;11.19;91.50;99591.19;10443147;28;20135;-76
2023/09/23 02:29:25;;;;;;;11.27;10.15;;;;;;;10.98;92.51;99596.75;10429066;28;20059;-76
2023/09/23 02:34:29;;;;;;;9.73;8.73;;;;;;;11.26;90.42;99602.19;10431950;28;20164;-76
2023/09/23 02:39:33;;;;;;;9.80;8.80;;;;;;;11.36;89.85;99597.63;10424806;28;20048;-76
2023/09/23 02:44:36;;;;;;;14.40;8.52;;;;;;;11.05;90.49;99605.94;10441906;28;20040;-76
2023/09/23 02:49:39;;;;;;;11.63;10.25;;;;;;;11.21;90.67;99616.06;10438865;28;20044;-77
2023/09/23 02:54:43;;;;;;;14.45;11.30;;;;;;;11.15;89.99;99619.34;10418973;28;20059;-77
2023/09/23 02:59:53;;;;;;;17.30;12.95;;;;;;;11.15;90.99;99629.25;10424101;28;20487;-76
2023/09/23 03:05:07;;;;;;;18.08;14.98;;;;;;;11.19;90.50;99626.13;10444056;28;20063;-76
2023/09/23 03:10:13;;;;;;;17.63;15.27;;;;;;;11.36;89.39;99631.75;10432536;28;20053;-76
2023/09/23 03:15:16;;;;;;;19.35;17.17;;;;;;;11.30;89.32;99643.94;10462080;28;20078;-76
2023/09/23 03:20:22;;;;;;;16.65;13.57;;;;;;;11.26;88.95;99645.22;10442156;28;20045;-76
2023/09/23 03:25:26;;;;;;;19.77;16.75;;;;;;;11.30;88.82;99648.44;10423924;28;20048;-76
2023/09/23 03:30:29;;;;;;;21.80;15.55;;;;;;;11.21;88.56;99669.81;10425388;28;20048;-76
2023/09/23 03:35:35;;;;;;;15.88;12.90;;;;;;;10.86;89.72;99675.84;10431651;28;20048;-76
2023/09/23 03:40:40;;;;;;;17.95;12.52;;;;;;;10.99;89.44;99681.72;10454789;28;20433;-76
2023/09/23 03:45:43;;;;;;;16.13;12.73;;;;;;;10.83;89.29;99681.47;10417206;28;20130;-77
2023/09/23 03:50:50;;;;;;;22.02;16.73;;;;;;;11.01;89.74;99700.41;10417496;28;20053;-76
2023/09/23 03:55:55;;;;;;;23.30;17.13;;;;;;;10.95;88.99;99695.63;10444218;28;20429;-77
2023/09/23 04:01:04;;;;;;;19.67;15.55;;;;;;;10.97;88.41;99712.41;10421506;28;21376;-76
2023/09/23 04:06:08;;;;;;;20.92;17.05;;;;;;;10.80;88.17;99724.75;10431003;28;20052;-76
2023/09/23 04:11:15;;;;;;;18.55;14.18;;;;;;;10.90;88.17;99738.19;10423770;28;20118;-76
2023/09/23 04:16:19;;;;;;;18.17;13.88;;;;;;;11.08;86.35;99746.34;10437006;28;20049;-76
2023/09/23 04:21:25;;;;;;;18.52;15.02;;;;;;;11.08;86.13;99749.91;10439210;28;20120;-76
2023/09/23 04:26:29;;;;;;;18.05;12.93;;;;;;;10.71;87.63;99760.53;10443775;28;20044;-76
2023/09/23 04:31:32;;;;;;;20.02;14.43;;;;;;;11.00;86.70;99765.91;10438918;28;20047;-76
2023/09/23 04:36:36;;;;;;;19.73;13.77;;;;;;;10.76;88.26;99775.22;10448337;28;20048;-77
2023/09/23 04:41:41;;;;;;;20.98;15.13;;;;;;;10.93;87.46;99787.09;10457963;28;20495;-76
2023/09/23 04:46:45;;;;;;;22.20;15.20;;;;;;;10.72;88.77;99787.22;10459164;28;20048;-77
2023/09/23 04:51:48;;;;;;;26.45;17.27;;;;;;;11.03;87.43;99795.19;10442980;28;20430;-76
2023/09/23 04:56:52;;;;;;;23.83;16.38;;;;;;;11.06;87.36;99802.97;10439751;28;20653;-76
2023/09/23 05:01:56;;;;;;;27.27;16.85;;;;;;;11.29;85.98;99808.91;10441297;28;20072;-76
2023/09/23 05:07:00;;;;;;;23.20;13.15;;;;;;;11.22;86.01;99823.94;10451985;28;20514;-76
2023/09/23 05:12:06;;;;;;;23.50;15.50;;;;;;;11.09;87.24;99823.34;10452862;28;20051;-75
2023/09/23 05:17:14;;;;;;;26.17;17.17;;;;;;;11.20;86.95;99832.13;10450421;28;20071;-75
2023/09/23 05:22:16;;;;;;;29.25;17.35;;;;;;;11.17;86.75;99839.63;10450510;28;20040;-76
2023/09/23 05:27:22;;;;;;;27.70;19.67;;;;;;;11.05;86.33;99849.63;10432630;28;20182;-76
2023/09/23 05:32:25;;;;;;;24.77;16.58;;;;;;;11.15;86.21;99847.81;10453693;28;20055;-76
2023/09/23 05:37:28;;;;;;;23.48;14.95;;;;;;;11.45;85.05;99859.44;10453076;28;20129;-76
2023/09/23 05:42:33;;;;;;;20.20;12.45;;;;;;;11.14;86.54;99874.88;10445319;28;20070;-75
2023/09/23 05:47:36;;;;;;;22.10;13.32;;;;;;;10.98;88.18;99872.69;10451732;28;20056;-76
2023/09/23 05:52:39;;;;;;;25.05;13.80;;;;;;;11.11;87.67;99888.53;10437035;28;20058;-76
2023/09/23 05:57:43;;;;;;;20.50;11.90;;;;;;;10.93;88.71;99901.81;10449350;28;20061;-76
2023/09/23 06:02:47;;;;;;;23.42;14.00;;;;;;;11.26;86.84;99904.13;10440987;28;20052;-77
2023/09/23 06:07:52;;;;;;;23.25;12.18;;;;;;;11.41;85.92;99919.84;10452512;28;20056;-77
2023/09/23 06:12:57;;;;;;;22.27;13.90;;;;;;;11.03;87.66;99925.03;10447639;28;20056;-76
2023/09/23 06:18:00;;;;;;;20.60;12.90;;;;;;;11.32;86.99;99931.47;10460938;28;21262;-76
2023/09/23 06:23:03;;;;;;;19.90;12.98;;;;;;;11.50;86.26;99940.53;10444880;28;20052;-77
2023/09/23 06:28:08;;;;;;;18.63;12.85;;;;;;;11.64;85.29;99950.03;10435763;28;20044;-76
2023/09/23 06:33:11;;;;;;;18.08;11.55;;;;;;;11.54;85.74;99949.16;10447399;28;20041;-76
2023/09/23 06:38:14;;;;;;;15.43;10.85;;;;;;;11.81;84.90;99959.22;10454633;28;20048;-75
2023/09/23 06:43:18;;;;;;;17.17;11.90;;;;;;;11.77;84.54;99941.69;10447652;28;21338;-76
2023/09/23 06:48:21;;;;;;;17.67;13.25;;;;;;;11.62;86.17;99962.75;10443986;28;20048;-77
2023/09/23 06:53:24;;;;;;;20.92;13.45;;;;;;;11.50;86.23;99978.19;10451540;28;20058;-77
2023/09/23 06:58:29;;;;;;;16.52;12.48;;;;;;;11.81;85.09;99986.97;10472956;28;20699;-77
2023/09/23 07:03:32;;;;;;;16.80;12.05;;;;;;;11.92;85.24;99988.66;10483491;28;20052;-77
2023/09/23 07:08:35;;;;;;;15.30;11.02;;;;;;;11.40;87.80;99996.16;10486620;28;20094;-77
2023/09/23 07:13:39;;;;;;;14.63;10.80;;;;;;;11.72;87.31;100004.81;10465585;28;20055;-77
2023/09/23 07:18:42;;;;;;;13.93;9.65;;;;;;;11.63;87.53;100004.84;10478956;28;20404;-77
2023/09/23 07:23:45;;;;;;;14.90;9.10;;;;;;;11.28;89.73;100012.41;10469889;28;20048;-76
2023/09/23 07:28:50;;;;;;;12.70;8.50;;;;;;;11.67;87.12;100007.09;10455924;28;20055;-76
2023/09/23 07:33:53;;;;;;;8.60;5.07;;;;;;;11.81;85.94;100035.41;10444503;28;20207;-76
2023/09/23 07:38:56;;;;;;;13.70;9.13;;;;;;;11.94;86.09;100030.59;10439376;28;20044;-76
2023/09/23 07:44:00;;;;;;;14.18;10.50;;;;;;;11.58;86.93;100048.28;10434847;28;20040;-76
2023/09/23 07:49:03;;;;;;;16.85;10.93;;;;;;;11.53;87.72;100050.53;10462231;28;20048;-76
2023/09/23 07:54:07;;;;;;;18.73;12.63;;;;;;;11.43;87.73;100055.88;10462008;28;20060;-76
2023/09/23 07:59:11;;;;;;;18.05;13.88;;;;;;;11.75;86.36;100052.13;10470204;28;20773;-76
2023/09/23 08:04:14;;;;;;;22.77;13.63;;;;;;;12.04;85.31;100056.66;10472074;28;20083;-77
2023/09/23 08:09:17;;;;;;;19.15;14.50;;;;;;;12.43;81.46;100054.84;10466067;28;20074;-76
2023/09/23 08:14:21;;;;;;;22.85;14.25;;;;;;;12.94;79.97;100072.41;10461931;28;20055;-76
2023/09/23 08:19:24;;;;;;;23.58;13.15;;;;;;;13.15;78.79;100082.97;10467147;28;20058;-76
2023/09/23 08:24:27;;;;;;;17.48;14.50;;;;;;;12.68;80.05;100087.53;10467615;28;20443;-76
2023/09/23 08:29:32;;;;;;;15.23;12.48;;;;;;;12.53;80.45;100092.50;10463115;28;20052;-76
2023/09/23 08:34:35;;;;;;;21.98;14.68;;;;;;;12.49;80.34;100101.91;10460329;28;20127;-75
2023/09/23 08:39:37;;;;;;;19.35;14.35;;;;;;;13.17;78.89;100105.25;10464169;28;20048;-76
2023/09/23 08:44:43;;;;;;;18.70;13.88;;;;;;;14.32;74.59;100122.78;10445295;28;20048;-76
2023/09/23 08:49:47;;;;;;;10.75;7.38;;;;;;;13.97;73.64;100123.63;10463148;28;20047;-76
2023/09/23 08:54:51;;;;;;;11.70;7.15;;;;;;;13.44;76.09;100134.16;10465199;28;20684;-76
2023/09/23 08:59:55;;;;;;;11.00;9.45;;;;;;;13.26;77.73;100127.78;10462933;28;20056;-77
2023/09/23 09:04:58;;;;;;;10.68;7.05;;;;;;;13.63;75.38;100129.63;10446344;28;20053;-79
2023/09/23 09:10:02;;;;;;;6.22;5.25;;;;;;;13.53;76.09;100145.88;10455617;28;20478;-78
2023/09/23 09:15:09;;;;;;;10.73;7.15;;;;;;;14.35;73.31;100138.69;10474098;28;20049;-78
2023/09/23 09:20:14;;;;;;;7.30;6.47;;;;;;;13.98;73.86;100150.47;10476846;28;20684;-79
2023/09/23 09:25:20;;;;;;;9.10;6.00;;;;;;;14.07;72.26;100152.25;10468505;28;20112;-78
2023/09/23 09:30:24;;;;;;;7.68;6.18;;;;;;;14.02;73.35;100156.41;10514809;28;20537;-78
2023/09/23 09:35:28;;;;;;;12.40;6.35;;;;;;;14.46;72.31;100178.16;10496573;28;20044;-77
2023/09/23 09:40:31;;;;;;;9.63;6.20;;;;;;;13.88;72.93;100184.78;10522884;28;20046;-78
2023/09/23 09:45:40;;;;;;;8.25;5.70;;;;;;;13.64;74.40;100178.06;10522009;28;20552;-77
2023/09/23 09:50:45;;;;;;;6.15;4.80;;;;;;;14.38;72.04;100187.00;10516335;28;20064;-77
2023/09/23 09:55:49;;;;;;;5.95;5.40;;;;;;;14.41;71.08;100186.72;10515305;28;20505;-78
2023/09/23 10:00:53;;;;;;;7.90;5.32;;;;;;;13.74;73.31;100209.56;10508173;28;20135;-77
2023/09/23 10:06:00;;;;;;;11.02;7.15;;;;;;;13.55;75.71;100199.69;10505691;28;20602;-77
2023/09/23 10:11:04;;;;;;;10.98;5.63;;;;;;;13.47;75.96;100203.16;10506564;28;20194;-79
2023/09/23 10:16:12;;;;;;;7.13;5.72;;;;;;;13.56;74.99;100218.44;10511003;28;20075;-77
2023/09/23 10:21:27;;;;;;;12.18;6.60;;;;;;;13.11;77.76;100226.34;10522389;28;20079;-78
2023/09/23 10:26:30;;;;;;;12.32;7.60;;;;;;;13.34;77.85;100218.78;10499318;28;20047;-79
2023/09/23 10:31:35;;;;;;;11.90;8.43;;;;;;;14.22;74.66;100233.63;10523775;28;20068;-79
2023/09/23 10:36:38;;;;;;;11.98;7.15;;;;;;;14.29;73.24;100233.84;10489328;28;20129;-79
2023/09/23 10:41:41;;;;;;;6.93;6.22;;;;;;;15.04;71.00;100239.84;10501343;28;20051;-78
2023/09/23 10:46:46;;;;;;;7.18;5.45;;;;;;;14.98;70.59;100251.28;10505982;28;20049;-77
2023/09/23 10:51:49;;;;;;;6.28;5.25;;;;;;;15.04;68.37;100239.84;10510573;28;20411;-79
2023/09/23 10:56:53;;;;;;;8.63;6.40;;;;;;;14.84;70.03;100236.47;10508962;28;20049;-79
2023/09/23 11:01:57;;;;;;;7.35;5.55;;;;;;;17.15;63.22;100243.56;10505720;28;20048;-79
2023/09/23 11:07:00;;;;;;;6.25;5.65;;;;;;;18.31;58.16;100247.66;10496686;28;20520;-78
2023/09/23 11:12:12;;;;;;;6.28;5.75;;;;;;;17.27;61.30;100257.63;10478584;28;20087;-78
2023/09/23 11:17:29;;;;;;;5.15;4.75;;;;;;;18.10;58.27;100249.13;10497557;28;20442;-77
2023/09/23 11:22:33;;;;;;;7.35;4.50;;;;;;;18.23;57.98;100261.31;10498879;28;20095;-79
2023/09/23 11:27:37;;;;;;;6.65;4.05;;;;;;;17.09;60.35;100267.81;10513218;28;20090;-78
2023/09/23 11:32:42;;;;;;;6.85;4.90;;;;;;;15.20;67.16;100285.13;10512566;28;20503;-79
2023/09/23 11:37:46;;;;;;;6.20;5.53;;;;;;;14.80;69.01;100289.13;10513172;28;20044;-77
2023/09/23 11:42:50;;;;;;;8.15;5.85;;;;;;;15.78;66.91;100280.97;10502349;28;20041;-78
2023/09/23 11:47:56;;;;;;;9.20;4.90;;;;;;;18.05;58.37;100284.16;10513019;28;20036;-79
2023/09/23 11:52:59;;;;;;;6.32;3.38;;;;;;;18.10;57.96;100280.88;10515695;28;20119;-77
2023/09/23 11:58:02;;;;;;;5.55;2.80;;;;;;;17.67;57.89;100275.75;10498543;28;20047;-78
2023/09/23 12:03:07;;;;;;;3.63;3.33;;;;;;;15.84;61.86;100283.88;10461038;28;20108;-77
2023/09/23 12:08:09;;;;;;;4.28;3.20;;;;;;;14.96;65.79;100277.63;10462758;28;20050;-76
2023/09/23 12:13:13;;;;;;;5.25;3.45;;;;;;;16.95;60.51;100289.16;10467299;28;20052;-77
2023/09/23 12:18:17;;;;;;;3.30;2.90;;;;;;;17.69;56.90;100289.16;10459879;28;20055;-78
2023/09/23 12:23:20;;;;;;;7.00;3.22;;;;;;;17.84;56.20;100303.72;10472146;28;20127;-77
2023/09/23 12:28:23;;;;;;;4.90;2.97;;;;;;;18.06;55.82;100291.28;10467534;28;20037;-77
2023/09/23 12:33:28;;;;;;;2.83;2.60;;;;;;;18.41;54.82;100301.84;10472773;28;20392;-79
2023/09/23 12:38:31;;;;;;;3.28;2.63;;;;;;;16.10;61.46;100304.69;10471357;28;20050;-77
2023/09/23 12:43:34;;;;;;;5.32;3.40;;;;;;;15.62;63.24;100312.34;10472037;28;20052;-78
2023/09/23 12:48:38;;;;;;;3.05;2.45;;;;;;;15.43;61.91;100323.38;10467265;28;20706;-78
2023/09/23 12:53:41;;;;;;;6.00;3.30;;;;;;;15.12;65.32;100317.50;10454222;28;20048;-77
2023/09/23 12:58:44;;;;;;;5.72;3.72;;;;;;;15.26;65.38;100328.63;10459193;28;20056;-77
2023/09/23 13:03:50;;;;;;;5.68;3.58;;;;;;;15.06;65.03;100327.09;10463895;28;20116;-78
2023/09/23 13:08:53;;;;;;;4.90;2.92;;;;;;;15.72;64.67;100339.31;10447336;28;20040;-78
2023/09/23 13:13:56;;;;;;;6.38;3.70;;;;;;;15.46;66.46;100345.56;10448894;28;20115;-77
2023/09/23 13:19:00;;;;;;;6.25;3.20;;;;;;;15.50;66.09;100356.94;10437649;28;20051;-78
2023/09/23 13:24:04;;;;;;;4.68;3.05;;;;;;;15.12;66.60;100353.53;10442050;28;20084;-78
2023/09/23 13:29:07;;;;;;;5.85;2.67;;;;;;;15.31;65.54;100363.34;10454710;28;20790;-77
2023/09/23 13:34:11;;;;;;;5.82;2.97;;;;;;;15.62;65.09;100365.66;10451192;28;21205;-78
2023/09/23 13:39:14;;;;;;;9.35;2.92;;;;;;;15.83;64.66;100371.56;10455726;28;20048;-79
2023/09/23 13:44:17;;;;;;;3.60;2.88;;;;;;;15.93;63.60;100371.44;10448918;28;20048;-77
2023/09/23 13:49:22;;;;;;;6.97;2.85;;;;;;;15.77;64.86;100363.19;10448071;28;20640;-77
2023/09/23 13:54:24;;;;;;;6.30;2.85;;;;;;;15.44;64.31;100373.78;10452067;28;20060;-78
2023/09/23 13:59:27;;;;;;;5.05;2.50;;;;;;;15.25;64.48;100370.22;10455581;28;20060;-78
2023/09/23 14:04:32;;;;;;;3.85;2.60;;;;;;;15.74;64.30;100387.91;10468422;28;20054;-78
2023/09/23 14:09:35;;;;;;;4.78;2.92;;;;;;;15.45;65.08;100389.03;10460414;28;20051;-77
2023/09/23 14:14:37;;;;;;;4.20;2.50;;;;;;;14.87;65.34;100379.47;10467644;28;20051;-77
2023/09/23 14:19:42;;;;;;;10.27;2.92;;;;;;;15.01;65.31;100388.91;10457490;28;20138;-78
2023/09/23 14:24:45;;;;;;;6.15;3.00;;;;;;;15.19;65.84;100384.38;10466137;28;20168;-78
2023/09/23 14:29:49;;;;;;;3.03;2.60;;;;;;;15.02;65.38;100401.44;10455285;28;20049;-78
2023/09/23 14:34:53;;;;;;;6.32;2.90;;;;;;;15.23;65.41;100398.44;10461349;28;20052;-77
2023/09/23 14:39:56;;;;;;;4.38;2.63;;;;;;;15.15;66.56;100407.31;10455578;28;20072;-77
2023/09/23 14:44:59;;;;;;;2.80;2.40;;;;;;;15.30;65.11;100404.91;10454787;28;20056;-77
2023/09/23 14:50:04;;;;;;;8.32;2.72;;;;;;;15.57;65.43;100414.84;10464289;28;20495;-78
2023/09/23 14:55:08;;;;;;;3.25;2.60;;;;;;;15.26;65.67;100420.63;10466039;28;20127;-78
2023/09/23 15:00:12;;;;;;;2.95;2.67;;;;;;;14.99;67.43;100432.34;10468528;28;20052;-78
2023/09/23 15:05:17;;;;;;;5.63;2.65;;;;;;;15.12;67.85;100439.25;10464506;28;20060;-78
2023/09/23 15:10:21;;;;;;;3.13;2.30;;;;;;;14.25;69.38;100441.34;10464856;28;20047;-78
2023/09/23 15:15:24;;;;;;;3.28;2.55;;;;;;;14.71;68.68;100455.84;10460731;28;20122;-77
2023/09/23 15:20:28;;;;;;;7.72;2.95;;;;;;;14.78;68.61;100456.97;10456021;28;20075;-77
2023/09/23 15:25:32;;;;;;;5.93;2.42;;;;;;;14.79;69.07;100468.63;10456705;28;20047;-78
2023/09/23 15:30:35;;;;;;;4.93;2.47;;;;;;;14.75;69.10;100469.91;10455622;28;20414;-74
2023/09/23 15:35:40;;;;;;;8.50;2.83;;;;;;;15.39;67.54;100470.88;10474515;28;21093;-78
2023/09/23 15:40:43;;;;;;;3.78;2.63;;;;;;;15.45;67.70;100481.06;10461485;28;20093;-78
2023/09/23 15:45:46;;;;;;;3.25;2.42;;;;;;;15.56;66.98;100486.25;10462936;28;20438;-77
2023/09/23 15:50:51;;;;;;;3.13;2.00;;;;;;;15.59;65.67;100501.34;10468215;28;20194;-78
2023/09/23 15:55:57;;;;;;;4.32;2.80;;;;;;;15.21;67.31;100509.53;10476969;28;20047;-79
2023/09/23 16:01:00;;;;;;;4.80;2.15;;;;;;;15.34;67.43;100519.16;10478999;28;20746;-79
2023/09/23 16:06:05;;;;;;;3.38;1.30;;;;;;;14.73;68.53;100537.66;10491106;28;20048;-79
2023/09/23 16:11:08;;;;;;;4.07;1.90;;;;;;;15.00;68.39;100533.28;10488080;28;20044;-80
2023/09/23 16:16:11;;;;;;;2.60;1.88;;;;;;;14.90;68.39;100532.47;10469785;28;20044;-78
2023/09/23 16:21:16;;;;;;;5.75;1.80;;;;;;;14.78;68.90;100545.31;10458017;28;20044;-78
2023/09/23 16:26:19;;;;;;;5.32;2.42;;;;;;;15.13;67.43;100559.97;10457718;28;20082;-78
2023/09/23 16:31:22;;;;;;;3.13;2.45;;;;;;;14.66;69.59;100562.72;10474508;28;20051;-78
2023/09/23 16:36:26;;;;;;;5.40;2.40;;;;;;;14.73;70.28;100571.97;10472364;28;20051;-78
2023/09/23 16:41:29;;;;;;;4.90;2.00;;;;;;;14.31;72.65;100570.44;10450231;28;20044;-77
2023/09/23 16:46:34;;;;;;;8.60;2.47;;;;;;;14.52;72.49;100570.31;10470616;28;20056;-77
2023/09/23 16:51:38;;;;;;;8.90;3.38;;;;;;;14.33;73.19;100571.16;10475868;28;20052;-77
2023/09/23 16:56:41;;;;;;;5.32;2.08;;;;;;;14.50;72.40;100585.81;10466520;28;20044;-77
2023/09/23 17:01:44;;;;;;;3.03;1.90;;;;;;;14.21;73.70;100588.53;10456157;28;20039;-77
2023/09/23 17:06:48;;;;;;;5.03;2.50;;;;;;;14.00;74.46;100593.22;10462492;28;21117;-77
2023/09/23 17:11:51;;;;;;;9.15;2.22;;;;;;;14.34;73.69;100599.91;10458783;28;20052;-77
2023/09/23 17:16:54;;;;;;;5.55;3.35;;;;;;;14.40;73.55;100613.84;10453452;28;20048;-77
2023/09/23 17:21:59;;;;;;;5.00;1.92;;;;;;;14.20;74.58;100615.66;10461091;28;20104;-76
2023/09/23 17:27:03;;;;;;;4.35;2.63;;;;;;;14.32;74.06;100625.34;10456606;28;20123;-75
2023/09/23 17:32:05;;;;;;;5.05;2.78;;;;;;;14.14;75.21;100636.84;10446969;28;20656;-77
2023/09/23 17:37:10;;;;;;;6.30;2.92;;;;;;;14.27;74.59;100643.84;10474868;28;20953;-76
2023/09/23 17:42:13;;;;;;;3.53;2.20;;;;;;;14.30;74.14;100657.06;10477852;28;20048;-79
2023/09/23 17:47:16;;;;;;;5.13;2.40;;;;;;;14.18;74.11;100667.16;10468860;28;20052;-77
2023/09/23 17:52:20;;;;;;;8.48;3.60;;;;;;;13.90;75.32;100674.19;10452071;28;20048;-76
2023/09/23 17:57:23;;;;;;;7.38;2.88;;;;;;;14.16;74.80;100677.25;10456928;28;20052;-77
2023/09/23 18:02:26;;;;;;;6.28;3.33;;;;;;;14.15;74.57;100689.91;10464191;28;20036;-77
2023/09/23 18:07:31;;;;;;;5.15;3.05;;;;;;;13.93;75.81;100695.53;10467033;28;20139;-78
2023/09/23 18:12:34;;;;;;;6.43;3.25;;;;;;;13.77;76.63;100701.47;10433606;28;21203;-77
2023/09/23 18:17:37;;;;;;;9.70;3.28;;;;;;;13.71;77.10;100710.97;10438614;28;20059;-77
2023/09/23 18:22:44;;;;;;;5.93;3.13;;;;;;;13.62;77.67;100713.63;10465513;28;20054;-76
2023/09/23 18:27:47;;;;;;;5.60;3.03;;;;;;;13.73;77.02;100715.38;10455131;28;20051;-77
2023/09/23 18:32:50;;;;;;;4.38;3.28;;;;;;;13.51;78.41;100733.47;10454313;28;20051;-77
2023/09/23 18:37:54;;;;;;;7.15;3.30;;;;;;;13.68;77.91;100746.31;10460834;28;20102;-77
2023/09/23 18:42:57;;;;;;;7.55;3.53;;;;;;;13.48;79.19;100752.63;10458067;28;20072;-76
2023/09/23 18:48:00;;;;;;;5.38;3.70;;;;;;;13.53;79.37;100763.03;10461456;28;20090;-77
2023/09/23 18:53:24;;;;;;;10.75;4.10;;;;;;;13.46;79.92;100771.66;10453761;28;20077;-77
2023/09/23 18:58:28;;;;;;;5.40;4.15;;;;;;;13.45;80.19;100783.44;10461974;28;20261;-77
2023/09/23 19:03:31;;;;;;;5.43;3.38;;;;;;;13.51;80.34;100787.44;10461189;28;20080;-77
2023/09/23 19:08:37;;;;;;;7.05;4.40;;;;;;;13.59;79.99;100792.19;10444337;28;20052;-77
2023/09/23 19:13:39;;;;;;;9.68;4.35;;;;;;;13.51;81.13;100789.28;10456791;28;20052;-77
2023/09/23 19:18:42;;;;;;;10.63;5.40;;;;;;;13.46;81.28;100804.03;10456187;28;20048;-77
2023/09/23 19:23:47;;;;;;;10.30;5.43;;;;;;;13.52;81.44;100802.66;10454719;28;20059;-78
2023/09/23 19:28:50;;;;;;;7.35;4.45;;;;;;;13.41;82.21;100811.69;10444160;28;20237;-79
2023/09/23 19:33:53;;;;;;;10.45;4.30;;;;;;;13.35;82.52;100817.56;10453127;28;20052;-78
2023/09/23 19:38:57;;;;;;;7.05;4.70;;;;;;;13.47;82.27;100811.16;10462175;28;20521;-77
2023/09/23 19:44:00;;;;;;;8.75;4.55;;;;;;;13.45;82.70;100823.06;10467233;28;20056;-77
2023/09/23 19:49:03;;;;;;;7.60;4.50;;;;;;;13.31;83.07;100823.38;10434162;28;20045;-77
2023/09/23 19:54:09;;;;;;;8.02;4.47;;;;;;;13.47;82.57;100826.50;10452208;28;20044;-79
2023/09/23 19:59:13;;;;;;;10.38;5.15;;;;;;;13.31;83.25;100837.72;10454314;28;20048;-77
2023/09/23 20:04:15;;;;;;;8.32;4.70;;;;;;;13.44;82.84;100843.81;10448106;28;20143;-78
2023/09/23 20:09:20;;;;;;;9.25;4.50;;;;;;;13.26;83.71;100848.91;10452547;28;20157;-77
2023/09/23 20:14:23;;;;;;;7.28;4.97;;;;;;;13.10;84.72;100858.41;10446322;28;20072;-78
2023/09/23 20:19:27;;;;;;;5.55;4.75;;;;;;;13.09;85.02;100860.25;10454142;28;20048;-76
2023/09/23 20:24:31;;;;;;;7.68;5.10;;;;;;;12.39;88.67;100873.19;10452195;28;20051;-77
2023/09/23 20:29:34;;;;;;;7.80;4.75;;;;;;;12.79;86.97;100883.41;10449333;28;20048;-77
2023/09/23 20:34:37;;;;;;;7.28;5.18;;;;;;;13.04;85.94;100882.22;10450176;28;20399;-77
2023/09/23 20:39:43;;;;;;;8.30;5.82;;;;;;;12.88;86.47;100880.94;10449150;28;20041;-77
2023/09/23 20:44:46;;;;;;;9.48;6.00;;;;;;;12.74;87.78;100888.31;10459573;28;20041;-77
2023/09/23 20:49:48;;;;;;;10.02;6.40;;;;;;;12.86;86.80;100893.69;10460599;28;20048;-77
2023/09/23 20:54:53;;;;;;;8.82;5.70;;;;;;;12.81;86.83;100900.31;10437271;28;20052;-77
2023/09/23 20:59:56;;;;;;;10.60;5.85;;;;;;;12.74;87.67;100912.56;10444498;28;20048;-78
2023/09/23 21:05:01;;;;;;;9.32;6.00;;;;;;;12.60;88.29;100913.69;10451709;28;20040;-76
2023/09/23 21:10:07;;;;;;;5.85;5.30;;;;;;;12.48;89.26;100919.22;10449423;28;20052;-76
2023/09/23 21:15:15;;;;;;;9.02;6.32;;;;;;;12.41;90.15;100935.03;10449666;28;20170;-77
2023/09/23 21:20:18;;;;;;;11.55;5.80;;;;;;;12.08;91.69;100934.00;10431196;28;20049;-76
2023/09/23 21:25:22;;;;;;;10.88;7.10;;;;;;;12.43;90.06;100935.78;10434307;28;20051;-77
2023/09/23 21:30:25;;;;;;;8.63;6.22;;;;;;;12.54;89.47;100934.91;10431755;28;20043;-76
2023/09/23 21:35:28;;;;;;;8.05;5.95;;;;;;;12.28;90.00;100947.72;10432523;28;20055;-77
2023/09/23 21:40:32;;;;;;;7.55;6.72;;;;;;;12.21;90.92;100951.91;10449509;28;20131;-77
2023/09/23 21:45:38;;;;;;;7.22;6.28;;;;;;;12.19;91.07;100954.72;10452856;28;20448;-78
2023/09/23 21:50:41;;;;;;;11.00;6.32;;;;;;;12.57;89.11;100969.69;10455478;28;20055;-77
2023/09/23 21:55:46;;;;;;;9.57;6.10;;;;;;;12.35;89.97;100971.41;10457059;28;20520;-77
2023/09/23 22:00:48;;;;;;;9.80;7.22;;;;;;;12.30;90.39;100973.59;10456751;28;20526;-77
2023/09/23 22:05:51;;;;;;;11.05;7.32;;;;;;;12.20;91.69;100972.56;10457588;28;20047;-77
2023/09/23 22:10:56;;;;;;;9.00;7.40;;;;;;;12.39;90.05;100974.72;10454819;28;21592;-76
2023/09/23 22:15:59;;;;;;;10.88;7.45;;;;;;;12.09;91.79;100978.78;10453864;28;21515;-78
2023/09/23 22:21:02;;;;;;;13.23;7.72;;;;;;;11.86;92.89;100993.19;10455027;28;20044;-78
2023/09/23 22:26:13;;;;;;;8.43;7.30;;;;;;;11.91;93.66;100993.72;10453132;28;20049;-77
2023/09/23 22:31:18;;;;;;;13.50;8.23;;;;;;;11.92;94.24;100995.41;10442820;28;20045;-77
2023/09/23 22:36:21;;;;;;;11.43;8.48;;;;;;;12.21;92.95;100998.56;10454038;28;21061;-77
2023/09/23 22:41:28;;;;;;;9.32;8.30;;;;;;;12.26;93.04;100993.66;10455293;28;20055;-77
2023/09/23 22:46:31;;;;;;;10.05;7.22;;;;;;;12.28;92.51;101009.69;10452054;28;20143;-77
2023/09/23 22:51:34;;;;;;;13.48;8.38;;;;;;;12.15;93.08;101013.34;10437954;28;20044;-77
2023/09/23 22:56:38;;;;;;;11.93;8.57;;;;;;;12.48;91.39;101008.13;10442254;28;21332;-77
2023/09/23 23:01:41;;;;;;;15.55;8.52;;;;;;;12.38;92.39;101026.88;10433929;28;20420;-77
2023/09/23 23:06:45;;;;;;;13.40;8.85;;;;;;;12.53;91.65;101019.41;10451779;28;20048;-78
2023/09/23 23:11:49;;;;;;;12.73;9.50;;;;;;;12.57;90.91;101024.44;10451544;28;20052;-77